Time;durP1;ratioP1;P1;durP2;ratioP2;P2;SDS_P1;SDS_P2;PMS_P1;PMS_P2;Temp;Humidity;BMP_temperature;BMP_pressure;BME280_temperature;BME280_humidity;BME280_pressure;Samples;Min_cycle;Max_cycle;Signal;HPM_P1;HPM_P2
2022/05/02 00:00:26;;;;;;;9.33;1.93;;;22.10;99.90;;;;;;5093878;28;20171;-66
2022/05/02 00:02:54;;;;;;;6.63;1.60;;;22.50;99.90;;;;;;5093582;28;20240;-66
2022/05/02 00:05:22;;;;;;;6.80;1.73;;;22.80;99.90;;;;;;5093596;28;20179;-67
2022/05/02 00:07:50;;;;;;;5.37;1.60;;;23.20;99.90;;;;;;5093678;28;20179;-66
2022/05/02 00:10:18;;;;;;;5.70;1.90;;;23.20;99.90;;;;;;5093620;28;20178;-66
2022/05/02 00:12:46;;;;;;;3.27;1.73;;;23.30;99.90;;;;;;5093505;28;20199;-66
2022/05/02 00:15:13;;;;;;;9.57;1.93;;;23.70;99.90;;;;;;5093222;28;20291;-67
2022/05/02 00:17:57;;;;;;;8.50;2.10;;;23.70;99.90;;;;;;5092429;28;20210;-66
2022/05/02 00:20:27;;;;;;;8.77;1.90;;;23.80;99.90;;;;;;5093530;28;20175;-66
2022/05/02 00:22:56;;;;;;;6.20;1.33;;;23.70;99.90;;;;;;5093336;28;20581;-66
2022/05/02 00:25:24;;;;;;;6.53;2.30;;;23.60;99.90;;;;;;5093032;28;20759;-67
2022/05/02 00:27:52;;;;;;;4.53;1.83;;;23.80;99.90;;;;;;5093377;28;20175;-66
2022/05/02 00:30:21;;;;;;;8.77;1.90;;;23.90;99.90;;;;;;5093345;28;20229;-66
2022/05/02 00:32:49;;;;;;;7.07;1.93;;;23.50;99.90;;;;;;5093333;28;20573;-66
2022/05/02 00:35:18;;;;;;;8.13;1.47;;;23.90;99.90;;;;;;5092900;28;20244;-67
2022/05/02 00:37:46;;;;;;;11.57;1.90;;;24.30;99.90;;;;;;5093165;28;20279;-67
2022/05/02 00:40:16;;;;;;;10.60;1.67;;;24.90;99.90;;;;;;5092503;28;20182;-66
2022/05/02 00:42:45;;;;;;;8.73;1.80;;;25.20;99.90;;;;;;5090183;28;20186;-67
2022/05/02 00:45:15;;;;;;;5.20;1.50;;;25.00;99.90;;;;;;5092621;28;20582;-66
2022/05/02 00:47:54;;;;;;;8.83;1.93;;;24.70;99.90;;;;;;5092942;28;20171;-65
2022/05/02 00:50:42;;;;;;;6.77;1.80;;;24.90;99.90;;;;;;5092972;28;20582;-66
2022/05/02 00:53:13;;;;;;;8.03;1.70;;;24.90;99.90;;;;;;5092814;28;20178;-66
2022/05/02 00:55:43;;;;;;;10.23;2.33;;;25.00;99.90;;;;;;5092455;28;20226;-67
2022/05/02 00:58:11;;;;;;;7.20;1.70;;;25.10;99.90;;;;;;5092539;28;20261;-66
2022/05/02 01:00:40;;;;;;;8.23;1.80;;;25.10;99.90;;;;;;5092373;28;20172;-66
2022/05/02 01:03:10;;;;;;;12.00;2.40;;;24.80;99.90;;;;;;5092233;28;20179;-67
2022/05/02 01:07:08;;;;;;;8.57;2.10;;;24.80;99.90;;;;;;5092206;28;20632;-67
2022/05/02 01:08:31;;;;;;;8.93;1.70;;;25.40;99.90;;;;;;5084462;28;20262;-65
2022/05/02 01:10:59;;;;;;;10.57;2.10;;;25.90;99.90;;;;;;5091399;28;20189;-66
2022/05/02 01:13:43;;;;;;;7.90;2.47;;;25.50;99.90;;;;;;5089456;28;20174;-67
2022/05/02 01:16:22;;;;;;;10.17;1.77;;;25.20;99.90;;;;;;5092190;28;20224;-66
2022/05/02 01:18:51;;;;;;;6.30;1.63;;;26.00;99.90;;;;;;5092244;28;20189;-66
2022/05/02 01:21:30;;;;;;;7.27;1.43;;;24.90;99.90;;;;;;5092284;28;20602;-66
2022/05/02 01:24:02;;;;;;;9.33;2.00;;;24.80;99.90;;;;;;5092165;28;20214;-66
2022/05/02 01:26:31;;;;;;;8.03;2.03;;;25.50;99.90;;;;;;5092034;28;20585;-66
2022/05/02 01:29:01;;;;;;;7.03;1.30;;;25.30;99.90;;;;;;5092339;28;20173;-66
2022/05/02 01:31:29;;;;;;;11.80;1.87;;;25.20;99.90;;;;;;5091654;28;20179;-67
2022/05/02 01:33:57;;;;;;;8.60;1.40;;;24.70;99.90;;;;;;5092198;28;20182;-67
2022/05/02 01:36:25;;;;;;;5.47;1.40;;;25.20;99.90;;;;;;5091925;28;20983;-67
2022/05/02 01:38:53;;;;;;;4.73;1.20;;;25.50;99.90;;;;;;5092141;28;20170;-67
2022/05/02 01:41:21;;;;;;;10.10;1.70;;;25.70;99.90;;;;;;5090760;28;20183;-66
2022/05/02 01:43:49;;;;;;;11.30;2.20;;;26.20;99.90;;;;;;5090024;28;20628;-66
2022/05/02 01:46:17;;;;;;;6.40;1.87;;;25.20;99.90;;;;;;5091953;28;20197;-67
2022/05/02 01:48:45;;;;;;;10.93;2.40;;;24.20;99.90;;;;;;5092076;28;20178;-67
2022/05/02 01:51:12;;;;;;;7.97;2.10;;;25.00;99.90;;;;;;5091932;28;20175;-67
2022/05/02 01:53:40;;;;;;;12.80;1.77;;;25.20;99.90;;;;;;5091962;28;20218;-68
2022/05/02 01:56:08;;;;;;;8.63;1.87;;;25.40;99.90;;;;;;5091737;28;20227;-68
2022/05/02 01:58:35;;;;;;;5.57;1.50;;;25.60;99.90;;;;;;5091886;28;20171;-68
2022/05/02 02:01:03;;;;;;;11.97;2.23;;;25.80;99.90;;;;;;5091973;28;20266;-67
2022/05/02 02:03:31;;;;;;;9.97;1.93;;;25.70;99.90;;;;;;5091620;28;20234;-68
2022/05/02 02:05:59;;;;;;;5.97;1.60;;;26.00;99.90;;;;;;5091797;28;20663;-68
2022/05/02 02:08:28;;;;;;;7.50;1.67;;;26.80;99.90;;;;;;5091817;28;20262;-68
2022/05/02 02:11:01;;;;;;;7.03;2.30;;;26.40;99.90;;;;;;5094876;28;20186;-68
2022/05/02 02:13:30;;;;;;;8.80;2.07;;;26.00;99.90;;;;;;5095831;28;20258;-67
2022/05/02 02:15:58;;;;;;;5.67;1.80;;;25.70;99.90;;;;;;5095909;28;20208;-67
2022/05/02 02:18:26;;;;;;;6.43;1.23;;;24.80;99.90;;;;;;5095841;28;20712;-67
2022/05/02 02:20:55;;;;;;;6.30;1.33;;;25.20;99.90;;;;;;5095336;28;20183;-68
2022/05/02 02:23:23;;;;;;;7.80;1.80;;;25.10;99.90;;;;;;5095537;28;20607;-67
2022/05/02 02:25:51;;;;;;;11.50;2.00;;;25.40;99.90;;;;;;5093385;28;20190;-67
2022/05/02 02:28:19;;;;;;;9.50;1.67;;;25.30;99.90;;;;;;5093277;28;20176;-67
2022/05/02 02:30:47;;;;;;;5.43;1.80;;;25.20;99.90;;;;;;5095310;28;20660;-67
2022/05/02 02:33:15;;;;;;;6.97;1.60;;;25.30;99.90;;;;;;5095615;28;20633;-67
2022/05/02 02:35:43;;;;;;;7.13;1.40;;;24.90;99.90;;;;;;5095553;28;20179;-66
2022/05/02 02:38:12;;;;;;;10.00;2.00;;;25.60;99.90;;;;;;5095233;28;20762;-66
2022/05/02 02:40:41;;;;;;;8.97;1.73;;;25.80;99.90;;;;;;5095087;28;20660;-66
2022/05/02 02:43:09;;;;;;;3.57;1.30;;;25.30;99.90;;;;;;5095226;28;20175;-67
2022/05/02 02:45:37;;;;;;;10.37;1.50;;;24.70;99.90;;;;;;5095476;28;20195;-66
2022/05/02 02:48:06;;;;;;;5.00;1.40;;;24.60;99.90;;;;;;5095136;28;20183;-67
2022/05/02 02:50:33;;;;;;;5.27;1.77;;;24.60;99.90;;;;;;5094773;28;20195;-67
2022/05/02 02:53:01;;;;;;;5.43;1.57;;;25.30;99.90;;;;;;5095205;28;20171;-66
2022/05/02 02:55:29;;;;;;;5.60;1.57;;;25.00;99.90;;;;;;5094919;28;20238;-66
2022/05/02 02:57:56;;;;;;;9.43;1.73;;;24.80;99.90;;;;;;5094738;28;20183;-66
2022/05/02 03:00:24;;;;;;;8.97;2.03;;;25.00;99.90;;;;;;5094430;28;20187;-66
2022/05/02 03:02:54;;;;;;;5.03;1.40;;;25.80;99.90;;;;;;5094957;28;20171;-67
2022/05/02 03:08:09;;;;;;;5.73;1.57;;;26.30;99.90;;;;;;5095196;28;20182;-68
2022/05/02 03:10:37;;;;;;;8.10;1.83;;;26.30;99.90;;;;;;5094635;28;20183;-66
2022/05/02 03:13:05;;;;;;;8.87;1.80;;;25.40;99.90;;;;;;5093584;28;20640;-67
2022/05/02 03:15:33;;;;;;;5.50;1.97;;;25.20;99.90;;;;;;5094758;28;20637;-67
2022/05/02 03:18:01;;;;;;;11.50;2.03;;;25.70;99.90;;;;;;5094519;28;20552;-67
2022/05/02 03:20:28;;;;;;;7.00;1.80;;;26.50;99.90;;;;;;5094449;28;20179;-67
2022/05/02 03:22:56;;;;;;;5.00;1.53;;;26.70;99.90;;;;;;5094558;28;20172;-67
2022/05/02 03:25:24;;;;;;;4.50;1.37;;;26.80;99.90;;;;;;5094362;28;20301;-67
2022/05/02 03:27:52;;;;;;;7.90;1.50;;;26.60;99.90;;;;;;5094426;28;20177;-67
2022/05/02 03:30:19;;;;;;;4.80;1.50;;;26.90;99.90;;;;;;5094061;28;20179;-67
2022/05/02 03:32:47;;;;;;;6.17;1.37;;;26.90;99.90;;;;;;5094270;28;20215;-68
2022/05/02 03:35:15;;;;;;;7.93;1.80;;;27.10;99.90;;;;;;5094414;28;20167;-67
2022/05/02 03:37:43;;;;;;;5.80;1.40;;;26.80;99.90;;;;;;5094512;28;20187;-67
2022/05/02 03:40:11;;;;;;;8.17;2.17;;;27.10;99.90;;;;;;5092237;28;20738;-68
2022/05/02 03:42:38;;;;;;;8.87;1.77;;;26.60;99.90;;;;;;5093941;28;20274;-67
2022/05/02 03:45:09;;;;;;;5.50;1.40;;;25.50;99.90;;;;;;5093859;28;20676;-67
2022/05/02 03:47:37;;;;;;;4.23;1.43;;;25.90;99.90;;;;;;5094307;28;20171;-68
2022/05/02 03:50:05;;;;;;;6.07;1.50;;;26.10;99.90;;;;;;5093713;28;20266;-68
2022/05/02 03:52:33;;;;;;;8.17;2.00;;;26.50;99.90;;;;;;5094028;28;20179;-67
2022/05/02 03:55:01;;;;;;;5.93;1.40;;;26.80;99.90;;;;;;5093850;28;20280;-68
2022/05/02 03:57:29;;;;;;;7.17;1.80;;;27.50;99.90;;;;;;5093730;28;20916;-68
2022/05/02 03:59:57;;;;;;;6.40;1.37;;;27.00;99.90;;;;;;5093588;28;20183;-68
2022/05/02 04:02:24;;;;;;;6.23;1.33;;;27.60;99.90;;;;;;5093793;28;20175;-68
2022/05/02 04:04:52;;;;;;;7.40;1.97;;;28.00;99.90;;;;;;5093715;28;20268;-68
2022/05/02 04:07:20;;;;;;;7.80;1.37;;;26.90;99.90;;;;;;5093623;28;20266;-67
2022/05/02 04:09:47;;;;;;;6.67;1.37;;;26.80;99.90;;;;;;5092132;28;20183;-67
2022/05/02 04:12:15;;;;;;;6.47;1.43;;;26.50;99.90;;;;;;5093567;28;20210;-66
2022/05/02 04:14:43;;;;;;;7.07;1.70;;;26.30;99.90;;;;;;5092739;28;20183;-67
2022/05/02 04:17:10;;;;;;;7.90;1.70;;;26.70;99.90;;;;;;5092247;28;20270;-66
2022/05/02 04:19:38;;;;;;;10.17;1.90;;;26.80;99.90;;;;;;5093594;28;20516;-67
2022/05/02 04:22:06;;;;;;;4.47;1.27;;;26.80;99.90;;;;;;5093248;28;20182;-66
2022/05/02 04:24:34;;;;;;;3.37;1.30;;;26.30;99.90;;;;;;5093129;28;20210;-66
2022/05/02 04:27:01;;;;;;;5.73;1.50;;;26.10;99.90;;;;;;5093146;28;20231;-67
2022/05/02 04:29:29;;;;;;;7.57;1.33;;;26.50;99.90;;;;;;5093371;28;20179;-67
2022/05/02 04:31:57;;;;;;;8.90;1.20;;;26.60;99.90;;;;;;5092900;28;20254;-67
2022/05/02 04:34:26;;;;;;;4.23;1.60;;;26.40;99.90;;;;;;5092338;28;20218;-67
2022/05/02 04:36:54;;;;;;;7.07;1.63;;;26.80;99.90;;;;;;5091341;28;20282;-67
2022/05/02 04:39:21;;;;;;;6.87;1.60;;;26.80;99.90;;;;;;5093143;28;20207;-67
2022/05/02 04:41:49;;;;;;;5.50;1.43;;;26.30;99.90;;;;;;5093005;28;20175;-67
2022/05/02 04:44:17;;;;;;;7.97;1.87;;;26.60;99.90;;;;;;5093061;28;20214;-67
2022/05/02 04:46:44;;;;;;;3.80;1.47;;;26.30;99.90;;;;;;5091694;28;20597;-68
2022/05/02 04:49:12;;;;;;;5.67;1.63;;;26.80;99.90;;;;;;5093003;28;20187;-67
2022/05/02 04:51:40;;;;;;;8.50;2.20;;;26.90;99.90;;;;;;5092727;28;20190;-67
2022/05/02 04:54:07;;;;;;;6.33;1.43;;;27.30;99.90;;;;;;5091318;28;20286;-68
2022/05/02 04:56:35;;;;;;;4.47;1.47;;;27.30;99.90;;;;;;5092872;28;20214;-67
2022/05/02 04:59:04;;;;;;;5.30;1.37;;;26.70;99.90;;;;;;5092819;28;20172;-67
2022/05/02 05:01:33;;;;;;;5.53;1.60;;;26.20;99.90;;;;;;5092701;28;20190;-67
2022/05/02 05:04:00;;;;;;;5.40;1.30;;;26.50;99.90;;;;;;5092399;28;20299;-67
2022/05/02 05:06:28;;;;;;;6.43;1.80;;;26.30;99.90;;;;;;5092771;28;20175;-67
2022/05/02 05:08:56;;;;;;;8.70;2.03;;;26.60;99.90;;;;;;5092556;28;20662;-67
2022/05/02 05:11:42;;;;;;;6.77;1.60;;;26.30;99.90;;;;;;5092565;28;20164;-67
2022/05/02 05:17:42;;;;;;;5.97;1.73;;;25.70;99.90;;;;;;5082586;28;20644;-67
2022/05/02 05:20:33;;;;;;;8.80;1.80;;;25.60;99.90;;;;;;5092505;28;20183;-67
2022/05/02 05:23:25;;;;;;;6.07;1.77;;;25.40;99.90;;;;;;5092322;28;20198;-67
2022/05/02 05:26:16;;;;;;;4.93;1.30;;;25.20;99.90;;;;;;5092378;28;20193;-66
2022/05/02 05:29:06;;;;;;;5.63;1.67;;;24.70;99.90;;;;;;5092003;28;20216;-66
2022/05/02 05:31:46;;;;;;;5.83;1.30;;;24.50;99.90;;;;;;5092091;28;20205;-67
2022/05/02 05:34:27;;;;;;;5.67;1.57;;;24.70;99.90;;;;;;5090780;28;20190;-68
2022/05/02 05:37:01;;;;;;;5.97;1.67;;;24.60;99.90;;;;;;5092064;28;20201;-66
2022/05/02 05:39:31;;;;;;;7.67;1.60;;;24.90;99.90;;;;;;5091374;28;20261;-66
2022/05/02 05:42:13;;;;;;;3.67;1.30;;;24.70;99.90;;;;;;5091698;28;20170;-66
2022/05/02 05:45:06;;;;;;;4.17;1.10;;;24.70;99.90;;;;;;5090598;28;20230;-67
2022/05/02 05:48:06;;;;;;;5.00;1.23;;;24.50;99.90;;;;;;5091104;28;20301;-67
2022/05/02 05:50:42;;;;;;;10.87;1.50;;;24.60;99.90;;;;;;5071881;28;20248;-66
2022/05/02 05:53:28;;;;;;;6.43;1.97;;;24.50;99.90;;;;;;5071850;28;20543;-67
2022/05/02 05:56:32;;;;;;;8.77;1.90;;;24.10;99.90;;;;;;5084681;28;20224;-67
2022/05/02 05:59:31;;;;;;;4.77;1.40;;;23.50;99.90;;;;;;5088620;28;20921;-66
2022/05/02 06:02:45;;;;;;;4.60;1.60;;;23.20;99.90;;;;;;5089123;28;20273;-67
2022/05/02 06:05:14;;;;;;;7.97;1.43;;;22.90;99.90;;;;;;5087019;28;20268;-67
2022/05/02 06:07:44;;;;;;;8.47;1.60;;;22.60;99.90;;;;;;5091107;28;20236;-67
2022/05/02 06:10:14;;;;;;;3.83;1.37;;;22.60;99.90;;;;;;5091388;28;20179;-66
2022/05/02 06:12:43;;;;;;;5.30;1.60;;;22.40;99.90;;;;;;5091775;28;20507;-67
2022/05/02 06:20:53;;;;;;;5.63;1.77;;;22.00;99.90;;;;;;5091981;28;20277;-68
2022/05/02 06:23:21;;;;;;;7.30;1.80;;;21.90;99.90;;;;;;5091160;28;20186;-68
2022/05/02 06:25:55;;;;;;;8.40;1.83;;;21.80;99.90;;;;;;5091562;28;20282;-67
2022/05/02 06:28:27;;;;;;;4.90;1.80;;;21.70;99.90;;;;;;5092006;28;20228;-67
2022/05/02 06:30:59;;;;;;;6.67;1.83;;;21.60;99.90;;;;;;5091343;28;20175;-67
2022/05/02 06:33:27;;;;;;;7.13;1.50;;;21.50;99.90;;;;;;5091651;28;20186;-67
2022/05/02 06:36:12;;;;;;;7.93;1.80;;;21.50;99.90;;;;;;5090753;28;20256;-67
2022/05/02 06:38:51;;;;;;;6.40;1.53;;;21.50;99.90;;;;;;5091293;28;20187;-67
2022/05/02 06:41:41;;;;;;;7.87;1.67;;;21.50;99.90;;;;;;5091490;28;20193;-68
2022/05/02 06:44:33;;;;;;;7.40;1.40;;;21.40;99.90;;;;;;5091064;28;20244;-66
2022/05/02 06:47:15;;;;;;;6.73;1.53;;;21.40;99.90;;;;;;5091067;28;20206;-67
2022/05/02 06:49:46;;;;;;;9.93;1.87;;;21.30;99.90;;;;;;5091390;28;20663;-67
2022/05/02 06:52:19;;;;;;;4.23;1.73;;;21.20;99.90;;;;;;5091411;28;20179;-67
2022/05/02 06:55:22;;;;;;;6.70;1.77;;;21.10;99.90;;;;;;5090532;28;20225;-66
2022/05/02 06:57:49;;;;;;;8.27;2.00;;;21.00;99.90;;;;;;5094974;28;20273;-68
2022/05/02 07:00:20;;;;;;;6.60;1.73;;;20.80;99.90;;;;;;5095019;28;20167;-66
2022/05/02 07:03:16;;;;;;;8.50;2.03;;;20.70;99.90;;;;;;5094678;28;20551;-68
2022/05/02 07:06:10;;;;;;;7.90;1.90;;;20.70;99.90;;;;;;5094420;28;20231;-66
2022/05/02 07:09:10;;;;;;;6.90;2.03;;;20.60;99.90;;;;;;5094980;28;20193;-66
2022/05/02 07:12:11;;;;;;;11.77;2.63;;;20.50;99.90;;;;;;5094791;28;20534;-66
2022/05/02 07:15:23;;;;;;;8.07;1.90;;;20.40;99.90;;;;;;5065302;28;20208;-66
2022/05/02 07:18:17;;;;;;;6.90;2.10;;;20.30;99.90;;;;;;5094017;28;20175;-67
2022/05/02 07:21:09;;;;;;;7.60;2.67;;;20.20;99.90;;;;;;5094452;28;20266;-66
2022/05/02 07:24:07;;;;;;;6.97;2.10;;;20.10;99.90;;;;;;5094260;28;20250;-66
2022/05/02 07:26:36;;;;;;;9.57;2.00;;;20.00;99.90;;;;;;5094100;28;20187;-66
2022/05/02 07:29:06;;;;;;;9.70;2.27;;;19.90;99.90;;;;;;5094614;28;20191;-66
2022/05/02 07:31:35;;;;;;;8.13;2.20;;;19.80;99.90;;;;;;5093475;28;20206;-66
2022/05/02 07:34:03;;;;;;;8.97;2.67;;;19.70;99.90;;;;;;5094147;28;20195;-66
2022/05/02 07:36:31;;;;;;;4.30;2.13;;;19.60;99.90;;;;;;5093911;28;20540;-67
2022/05/02 07:39:09;;;;;;;8.43;2.33;;;19.50;99.90;;;;;;5093816;28;20215;-66
2022/05/02 07:41:38;;;;;;;7.03;3.00;;;19.40;99.90;;;;;;5093858;28;20253;-65
2022/05/02 07:44:12;;;;;;;6.67;2.83;;;19.30;99.90;;;;;;5093913;28;20256;-67
2022/05/02 07:46:42;;;;;;;16.10;5.07;;;19.10;99.90;;;;;;5094146;28;20210;-67
2022/05/02 07:49:13;;;;;;;14.97;4.47;;;19.10;99.90;;;;;;5094302;28;20171;-67
2022/05/02 07:51:51;;;;;;;16.57;4.67;;;19.00;99.90;;;;;;5093899;28;20179;-66
2022/05/02 07:54:23;;;;;;;8.70;3.73;;;19.00;99.90;;;;;;5093507;28;20234;-67
2022/05/02 07:56:56;;;;;;;16.17;3.97;;;18.90;99.90;;;;;;5093345;28;20198;-67
2022/05/02 07:59:29;;;;;;;8.77;3.10;;;18.80;99.90;;;;;;5090764;28;20179;-66
2022/05/02 08:01:58;;;;;;;9.10;2.80;;;18.80;99.90;;;;;;5092807;28;20215;-65
2022/05/02 08:04:26;;;;;;;9.90;3.30;;;18.70;99.90;;;;;;5093065;28;20214;-66
2022/05/02 08:07:13;;;;;;;8.83;2.80;;;18.70;99.90;;;;;;5092877;28;20180;-66
2022/05/02 08:09:53;;;;;;;12.13;3.43;;;18.60;99.90;;;;;;5093387;28;20183;-66
2022/05/02 08:12:40;;;;;;;10.97;3.20;;;18.60;99.90;;;;;;5093178;28;20183;-67
2022/05/02 08:15:20;;;;;;;8.63;3.03;;;18.50;99.90;;;;;;5093696;28;20179;-67
2022/05/02 08:18:03;;;;;;;8.10;3.10;;;18.50;99.90;;;;;;5093484;28;20183;-66
2022/05/02 08:20:42;;;;;;;8.80;3.53;;;18.60;99.90;;;;;;5092359;28;20648;-67
2022/05/02 08:29:40;;;;;;;9.93;4.00;;;18.50;99.90;;;;;;5093465;28;20190;-66
2022/05/02 08:32:12;;;;;;;11.80;3.93;;;18.40;99.90;;;;;;5092759;28;20278;-67
2022/05/02 08:34:40;;;;;;;8.30;3.27;;;18.40;99.90;;;;;;5093512;28;20183;-66
2022/05/02 08:37:37;;;;;;;11.90;3.70;;;18.30;99.90;;;;;;5093311;28;20592;-66
2022/05/02 08:40:22;;;;;;;6.37;3.10;;;18.30;99.90;;;;;;5093264;28;20184;-66
2022/05/02 08:43:17;;;;;;;13.83;3.50;;;18.30;99.90;;;;;;5092834;28;20265;-66
2022/05/02 08:46:21;;;;;;;10.17;3.70;;;18.20;99.90;;;;;;5092954;28;20187;-67
2022/05/02 08:49:35;;;;;;;9.83;3.40;;;18.30;99.90;;;;;;5085229;28;20216;-66
2022/05/02 08:52:29;;;;;;;11.37;3.57;;;18.30;99.90;;;;;;5091682;28;20187;-67
2022/05/02 08:55:24;;;;;;;13.33;4.23;;;18.30;99.90;;;;;;5092618;28;20348;-67
2022/05/02 08:58:10;;;;;;;14.57;3.23;;;18.30;99.90;;;;;;5090051;28;20179;-66
2022/05/02 09:01:16;;;;;;;7.13;2.93;;;18.30;99.90;;;;;;5090926;28;20187;-66
2022/05/02 09:04:20;;;;;;;9.90;3.50;;;18.20;99.90;;;;;;5091998;28;20210;-67
2022/05/02 09:07:15;;;;;;;8.87;2.83;;;18.20;99.90;;;;;;5092661;28;20181;-66
2022/05/02 09:10:09;;;;;;;9.93;3.50;;;18.20;99.90;;;;;;5092550;28;20202;-67
2022/05/02 09:13:01;;;;;;;19.50;2.67;;;18.10;99.90;;;;;;5087920;28;20244;-67
2022/05/02 09:15:48;;;;;;;11.83;3.10;;;18.10;99.90;;;;;;5092580;28;20175;-67
2022/05/02 09:18:52;;;;;;;7.37;2.83;;;18.00;99.90;;;;;;5089719;28;20187;-66
2022/05/02 09:21:47;;;;;;;10.57;3.20;;;18.00;99.90;;;;;;5072201;28;20186;-66
2022/05/02 09:24:24;;;;;;;13.07;3.37;;;17.90;99.90;;;;;;5083612;28;20207;-67
2022/05/02 09:27:15;;;;;;;14.23;2.63;;;17.90;99.90;;;;;;5091975;28;20174;-67
2022/05/02 09:30:12;;;;;;;7.03;2.50;;;17.80;99.90;;;;;;5091078;28;20179;-67
2022/05/02 09:33:21;;;;;;;7.10;2.47;;;17.70;99.90;;;;;;5092309;28;20175;-66
2022/05/02 09:36:21;;;;;;;11.57;3.10;;;17.60;99.90;;;;;;5092332;28;20254;-66
2022/05/02 09:39:02;;;;;;;10.23;2.80;;;17.50;99.90;;;;;;5092294;28;20194;-67
2022/05/02 09:41:51;;;;;;;10.80;3.37;;;17.40;99.90;;;;;;5092227;28;20599;-68
2022/05/02 09:50:56;;;;;;;5.97;2.50;;;17.20;99.90;;;;;;5102630;28;20559;-67
2022/05/02 09:53:34;;;;;;;6.23;2.80;;;17.10;99.90;;;;;;5079690;28;20198;-68
2022/05/02 09:56:38;;;;;;;7.37;2.60;;;17.10;99.90;;;;;;5098079;28;20228;-68
2022/05/02 09:59:10;;;;;;;5.90;2.30;;;17.00;99.90;;;;;;5094602;28;20163;-69
2022/05/02 10:01:47;;;;;;;8.83;2.70;;;16.90;99.90;;;;;;5092853;28;20187;-68
2022/05/02 10:05:03;;;;;;;8.07;3.23;;;16.80;99.90;;;;;;5093097;28;20213;-68
2022/05/02 10:07:58;;;;;;;7.83;2.60;;;16.80;99.90;;;;;;5056045;28;20193;-68
2022/05/02 10:10:43;;;;;;;5.63;2.87;;;16.80;99.90;;;;;;5093187;28;20171;-70
2022/05/02 10:13:23;;;;;;;13.03;3.30;;;16.70;99.90;;;;;;5093090;28;20185;-68
2022/05/02 10:16:26;;;;;;;14.77;3.47;;;16.70;99.90;;;;;;5093305;28;20178;-68
2022/05/02 10:18:57;;;;;;;12.43;3.30;;;16.60;99.90;;;;;;5069958;28;20214;-69
2022/05/02 10:21:35;;;;;;;10.33;2.90;;;16.60;99.90;;;;;;5093149;28;20545;-68
2022/05/02 10:24:32;;;;;;;8.73;3.40;;;16.50;99.90;;;;;;5093133;28;20298;-68
2022/05/02 10:27:26;;;;;;;10.50;3.40;;;16.40;99.90;;;;;;5077251;28;20179;-67
2022/05/02 10:30:12;;;;;;;8.97;3.40;;;16.30;99.90;;;;;;5093230;28;20371;-68
2022/05/02 10:32:59;;;;;;;10.43;4.03;;;16.30;99.90;;;;;;5097101;28;20182;-68
2022/05/02 10:35:28;;;;;;;7.97;3.30;;;16.30;99.90;;;;;;5096831;28;20167;-69
2022/05/02 10:37:58;;;;;;;8.87;4.00;;;16.30;99.90;;;;;;5096877;28;20179;-69
2022/05/02 10:40:40;;;;;;;9.10;3.93;;;16.20;99.90;;;;;;5096393;28;20202;-68
2022/05/02 10:43:10;;;;;;;14.70;4.33;;;16.20;99.90;;;;;;5096746;28;20581;-70
2022/05/02 10:45:40;;;;;;;11.30;4.80;;;16.20;99.90;;;;;;5096824;28;20544;-68
2022/05/02 10:48:27;;;;;;;11.80;4.27;;;16.10;99.90;;;;;;5095464;28;20541;-68
2022/05/02 10:51:32;;;;;;;12.30;3.67;;;16.10;99.90;;;;;;5096579;28;20546;-68
2022/05/02 10:54:15;;;;;;;8.77;3.87;;;16.00;99.90;;;;;;5075051;28;20194;-68
2022/05/02 10:56:45;;;;;;;11.23;3.60;;;16.00;99.90;;;;;;5096646;28;20183;-68
2022/05/02 10:59:15;;;;;;;9.57;3.30;;;16.00;99.90;;;;;;5096507;28;20167;-67
2022/05/02 11:02:16;;;;;;;9.50;4.20;;;15.90;99.90;;;;;;5096606;28;20258;-69
2022/05/02 11:05:05;;;;;;;9.23;3.33;;;15.90;99.90;;;;;;5096359;28;20210;-66
2022/05/02 11:07:55;;;;;;;10.70;4.03;;;15.90;99.90;;;;;;5096693;28;20228;-67
2022/05/02 11:10:30;;;;;;;10.20;4.00;;;15.80;99.90;;;;;;5096368;28;20172;-67
2022/05/02 11:13:12;;;;;;;7.83;4.00;;;15.80;99.90;;;;;;5095959;28;20174;-67
2022/05/02 11:15:51;;;;;;;9.00;3.60;;;15.80;99.90;;;;;;5096206;28;20171;-68
2022/05/02 11:21:51;;;;;;;7.77;3.40;;;15.80;99.90;;;;;;5096299;28;20190;-67
2022/05/02 11:24:41;;;;;;;8.17;4.03;;;15.70;99.90;;;;;;5094037;28;20223;-68
2022/05/02 11:27:34;;;;;;;12.83;3.70;;;15.70;99.90;;;;;;5075936;28;20191;-66
2022/05/02 11:30:07;;;;;;;9.00;3.57;;;15.70;99.90;;;;;;5075394;28;20253;-67
2022/05/02 11:33:05;;;;;;;14.60;3.97;;;15.60;99.90;;;;;;5075603;28;20227;-68
2022/05/02 11:35:37;;;;;;;11.77;3.73;;;15.60;99.90;;;;;;5075749;28;20168;-68
2022/05/02 11:38:07;;;;;;;7.57;3.90;;;15.50;99.90;;;;;;5075329;28;20211;-68
2022/05/02 11:40:51;;;;;;;8.87;3.77;;;15.40;99.90;;;;;;5074121;28;20263;-67
2022/05/02 11:43:30;;;;;;;8.90;3.80;;;15.40;99.90;;;;;;5074152;28;20186;-68
2022/05/02 11:46:14;;;;;;;11.43;4.30;;;15.40;99.90;;;;;;5075564;28;20183;-67
2022/05/02 11:49:18;;;;;;;14.87;3.97;;;15.30;99.90;;;;;;5075346;28;20172;-67
2022/05/02 11:51:53;;;;;;;9.23;4.03;;;15.40;99.90;;;;;;5075220;28;20176;-66
2022/05/02 11:54:37;;;;;;;8.77;3.40;;;15.30;99.90;;;;;;5075078;28;20254;-67
2022/05/02 11:57:29;;;;;;;10.63;3.60;;;15.20;99.90;;;;;;5075130;28;20635;-67
2022/05/02 12:00:09;;;;;;;7.37;3.73;;;15.20;99.90;;;;;;5073705;28;20180;-67
2022/05/02 12:02:39;;;;;;;9.47;4.50;;;15.20;99.90;;;;;;5075086;28;20179;-67
2022/05/02 12:05:32;;;;;;;12.60;3.90;;;15.20;99.90;;;;;;5074869;28;20212;-67
2022/05/02 12:08:02;;;;;;;9.57;4.20;;;15.20;99.90;;;;;;5075361;28;20175;-68
2022/05/02 12:10:42;;;;;;;11.00;3.70;;;15.20;99.90;;;;;;5074879;28;20184;-67
2022/05/02 12:13:12;;;;;;;13.43;3.63;;;15.10;99.90;;;;;;5075020;28;20687;-67
2022/05/02 12:15:59;;;;;;;8.27;3.50;;;15.10;99.90;;;;;;5074818;28;20306;-67
2022/05/02 12:18:48;;;;;;;10.53;3.80;;;15.00;99.90;;;;;;5074711;28;20168;-67
2022/05/02 12:21:31;;;;;;;8.80;3.77;;;15.00;99.90;;;;;;5074692;28;20172;-67
2022/05/02 12:24:00;;;;;;;9.07;3.50;;;15.00;99.90;;;;;;5074495;28;20683;-67
2022/05/02 12:26:29;;;;;;;11.90;4.50;;;15.00;99.90;;;;;;5074611;28;20179;-67
2022/05/02 12:29:03;;;;;;;12.57;4.53;;;14.90;99.90;;;;;;5074247;28;20172;-68
2022/05/02 12:31:34;;;;;;;10.23;4.60;;;15.00;99.90;;;;;;5074492;28;20195;-67
2022/05/02 12:34:05;;;;;;;8.13;3.97;;;15.00;99.90;;;;;;5074522;28;20187;-67
2022/05/02 12:36:56;;;;;;;18.50;4.63;;;15.10;99.90;;;;;;5074884;28;20183;-67
2022/05/02 12:39:31;;;;;;;9.57;3.60;;;15.10;99.90;;;;;;5085883;28;20198;-66
2022/05/02 12:42:17;;;;;;;15.57;4.53;;;15.20;99.90;;;;;;5090730;28;20187;-67
2022/05/02 12:45:11;;;;;;;14.83;3.50;;;15.30;99.90;;;;;;5094869;28;20203;-67
2022/05/02 12:47:49;;;;;;;9.30;4.20;;;15.30;99.90;;;;;;5093707;28;20717;-67
2022/05/02 12:50:21;;;;;;;10.80;3.73;;;15.40;99.90;;;;;;5093762;28;20519;-67
2022/05/02 12:52:54;;;;;;;14.03;4.40;;;15.40;99.90;;;;;;5091901;28;20175;-67
2022/05/02 12:55:29;;;;;;;11.57;5.00;;;15.50;99.90;;;;;;5093588;28;20291;-67
2022/05/02 13:00:58;;;;;;;8.83;3.73;;;15.60;99.90;;;;;;5094611;28;20178;-67
2022/05/02 13:03:27;;;;;;;8.47;3.83;;;15.60;99.90;;;;;;5094080;28;20262;-67
2022/05/02 13:06:17;;;;;;;11.40;4.13;;;15.60;99.90;;;;;;5093923;28;20186;-66
2022/05/02 13:08:45;;;;;;;9.53;4.13;;;15.70;99.90;;;;;;5093696;28;20184;-67
2022/05/02 13:11:21;;;;;;;6.83;4.43;;;15.70;99.90;;;;;;5093413;28;20191;-68
2022/05/02 13:13:52;;;;;;;12.93;4.30;;;15.80;99.90;;;;;;5093619;28;20186;-68
2022/05/02 13:16:32;;;;;;;10.30;4.50;;;15.70;99.90;;;;;;5093144;28;20198;-67
2022/05/02 13:19:04;;;;;;;7.20;3.60;;;15.80;99.90;;;;;;5093315;28;20200;-67
2022/05/02 13:21:32;;;;;;;13.27;4.47;;;15.90;99.90;;;;;;5093065;28;20282;-67
2022/05/02 13:24:14;;;;;;;12.37;4.07;;;15.80;99.90;;;;;;5092972;28;20202;-67
2022/05/02 13:26:57;;;;;;;10.80;3.87;;;15.90;99.90;;;;;;5093453;28;20270;-67
2022/05/02 13:30:11;;;;;;;11.47;3.87;;;15.90;99.90;;;;;;5092829;28;20218;-67
2022/05/02 13:32:55;;;;;;;15.00;3.70;;;15.90;99.90;;;;;;5092831;28;20210;-67
2022/05/02 13:35:28;;;;;;;9.73;4.40;;;15.90;99.90;;;;;;5087178;28;20528;-68
2022/05/02 13:38:09;;;;;;;7.77;3.83;;;15.90;99.90;;;;;;5092941;28;20273;-67
2022/05/02 13:40:43;;;;;;;7.33;3.33;;;15.90;99.90;;;;;;5092671;28;20712;-66
2022/05/02 13:43:40;;;;;;;9.67;4.00;;;15.90;99.90;;;;;;5073332;28;20172;-66
2022/05/02 13:46:33;;;;;;;10.50;3.80;;;15.90;99.90;;;;;;5060191;28;20203;-67
2022/05/02 13:49:21;;;;;;;10.60;4.23;;;16.00;99.90;;;;;;5092271;28;20641;-68
2022/05/02 13:52:04;;;;;;;8.23;3.50;;;15.90;99.90;;;;;;5088713;28;20225;-67
2022/05/02 13:54:39;;;;;;;9.77;4.53;;;16.00;99.90;;;;;;5093591;28;20226;-67
2022/05/02 13:57:18;;;;;;;11.90;3.97;;;16.00;99.90;;;;;;5093028;28;20261;-67
2022/05/02 14:03:25;;;;;;;9.03;4.00;;;16.00;99.90;;;;;;5092934;28;20303;-67
2022/05/02 14:08:38;;;;;;;12.73;4.63;;;16.10;99.90;;;;;;5077169;28;20179;-67
2022/05/02 14:11:12;;;;;;;8.77;4.20;;;16.00;99.90;;;;;;5089994;28;20251;-68